APL Minneapolis — A8NY9 — position and weather

sailwx.info

Track history (hours):
 
Tides and Currents Weather Stations Pressure Air Temp Water Temp Dewpoint Dewpoint Depression Visibility Wind Speed Wind Dir Waves Ship Positions

APL Minneapolis

Last reported at 2018-Apr-18 22:03 UTC. Time now 2018-Apr-19 17:15 UTC.
Position S 34°02' E 151°45'.

Length 231 m; draft 11.6 m.

Type: Ship (hazmat cat A). MMSI: 636091449.

Date/timePositionNaut miles runAvg speedWind from/ knotsBaromVisibWave heightAir tempDewpointWater temp
2018-Apr-18 22:03S 34°02' E 151°45'119.4
2018-Apr-18 21:59S 34°02' E 151°43'1019.7
2018-Apr-18 21:30S 34°02' E 151°32'1019.4
2018-Apr-18 21:00S 34°01' E 151°20'7 9.5
2018-Apr-18 20:16S 33°58' E 151°12'0 0.0
2018-Apr-17 16:29S 33°58' E 151°13'2 3.3
2018-Apr-17 15:58S 33°60' E 151°14'511.0
2018-Apr-17 15:31S 34°02' E 151°19'712.9
2018-Apr-17 14:58S 34°09' E 151°17'  
2018-Apr-14 23:19S 37°49' E 144°55'1 2.7
2018-Apr-14 22:59S 37°50' E 144°54'4 7.5
2018-Apr-14 22:30S 37°53' E 144°56'  
2018-Apr-10 08:33S 36°41' E 174°53'0 0.0
2018-Apr-10 08:21S 36°41' E 174°53'0 0.0
2018-Apr-10 07:21S 36°41' E 174°53'0 0.0
2018-Apr-10 06:57S 36°41' E 174°53'0 0.1
2018-Apr-10 06:21S 36°41' E 174°53'0 0.2
2018-Apr-10 05:51S 36°41' E 174°53'0 0.1
2018-Apr-10 05:03S 36°41' E 174°53'0 0.5
2018-Apr-10 04:57S 36°41' E 174°53'0 0.0
2018-Apr-10 01:33S 36°41' E 174°53'0 0.2
2018-Apr-10 01:27S 36°41' E 174°53'0 0.1
2018-Apr-10 00:51S 36°41' E 174°53'0 0.1
2018-Apr-10 00:15S 36°41' E 174°53'0 0.3
2018-Apr-09 23:57S 36°41' E 174°53'0 0.0
2018-Apr-09 23:21S 36°41' E 174°53'0 0.1
2018-Apr-09 22:45S 36°41' E 174°53'0 0.1
2018-Apr-09 22:21S 36°41' E 174°53'0 0.0
2018-Apr-09 21:57S 36°41' E 174°53'0 0.1
2018-Apr-09 21:27S 36°41' E 174°53'0 0.0
2018-Apr-09 20:57S 36°41' E 174°53'0 0.1
2018-Apr-09 20:21S 36°41' E 174°53'0 0.1
2018-Apr-09 19:51S 36°41' E 174°53'0 0.0
2018-Apr-09 19:27S 36°41' E 174°53'0 0.1
2018-Apr-09 18:57S 36°41' E 174°53'0 0.1
2018-Apr-09 18:21S 36°41' E 174°53'0 0.1
2018-Apr-09 17:45S 36°41' E 174°53'0 0.0
2018-Apr-09 17:21S 36°41' E 174°53'0 0.0
2018-Apr-09 16:51S 36°41' E 174°53'0 0.0
2018-Apr-09 16:27S 36°41' E 174°53'0 0.0
2018-Apr-09 15:42S 36°41' E 174°53'0 0.5
2018-Apr-09 15:30S 36°41' E 174°53'3 6.9
2018-Apr-09 15:00S 36°44' E 174°51'510.4
2018-Apr-09 14:30S 36°49' E 174°50'  
Track history (hours):
 
Tides and Currents Weather Stations Pressure Air Temp Water Temp Dewpoint Dewpoint Depression Visibility Wind Speed Wind Dir Waves Ship Positions

APL Minneapolis

Last reported at 2018-Apr-18 22:03 UTC. Time now 2018-Apr-19 17:15 UTC.
Position S 34°02' E 151°45'.

Length 231 m; draft 11.6 m.

Type: Ship (hazmat cat A). MMSI: 636091449.

Date/timePositionNaut miles runAvg speedWind from/ knotsBaromVisibWave heightAir tempDewpointWater temp
2018-Apr-18 22:03S 34°02' E 151°45'119.4
2018-Apr-18 21:59S 34°02' E 151°43'1019.7
2018-Apr-18 21:30S 34°02' E 151°32'1019.4
2018-Apr-18 21:00S 34°01' E 151°20'7 9.5
2018-Apr-18 20:16S 33°58' E 151°12'0 0.0
2018-Apr-17 16:29S 33°58' E 151°13'2 3.3
2018-Apr-17 15:58S 33°60' E 151°14'511.0
2018-Apr-17 15:31S 34°02' E 151°19'712.9
2018-Apr-17 14:58S 34°09' E 151°17'  
2018-Apr-14 23:19S 37°49' E 144°55'1 2.7
2018-Apr-14 22:59S 37°50' E 144°54'4 7.5
2018-Apr-14 22:30S 37°53' E 144°56'  
2018-Apr-10 08:33S 36°41' E 174°53'0 0.0
2018-Apr-10 08:21S 36°41' E 174°53'0 0.0
2018-Apr-10 07:21S 36°41' E 174°53'0 0.0
2018-Apr-10 06:57S 36°41' E 174°53'0 0.1
2018-Apr-10 06:21S 36°41' E 174°53'0 0.2
2018-Apr-10 05:51S 36°41' E 174°53'0 0.1
2018-Apr-10 05:03S 36°41' E 174°53'0 0.5
2018-Apr-10 04:57S 36°41' E 174°53'0 0.0
2018-Apr-10 01:33S 36°41' E 174°53'0 0.2
2018-Apr-10 01:27S 36°41' E 174°53'0 0.1
2018-Apr-10 00:51S 36°41' E 174°53'0 0.1
2018-Apr-10 00:15S 36°41' E 174°53'0 0.3
2018-Apr-09 23:57S 36°41' E 174°53'0 0.0
2018-Apr-09 23:21S 36°41' E 174°53'0 0.1
2018-Apr-09 22:45S 36°41' E 174°53'0 0.1
2018-Apr-09 22:21S 36°41' E 174°53'0 0.0
2018-Apr-09 21:57S 36°41' E 174°53'0 0.1
2018-Apr-09 21:27S 36°41' E 174°53'0 0.0
2018-Apr-09 20:57S 36°41' E 174°53'0 0.1
2018-Apr-09 20:21S 36°41' E 174°53'0 0.1
2018-Apr-09 19:51S 36°41' E 174°53'0 0.0
2018-Apr-09 19:27S 36°41' E 174°53'0 0.1
2018-Apr-09 18:57S 36°41' E 174°53'0 0.1
2018-Apr-09 18:21S 36°41' E 174°53'0 0.1
2018-Apr-09 17:45S 36°41' E 174°53'0 0.0
2018-Apr-09 17:21S 36°41' E 174°53'0 0.0
2018-Apr-09 16:51S 36°41' E 174°53'0 0.0
2018-Apr-09 16:27S 36°41' E 174°53'0 0.0
2018-Apr-09 15:42S 36°41' E 174°53'0 0.5
2018-Apr-09 15:30S 36°41' E 174°53'3 6.9
2018-Apr-09 15:00S 36°44' E 174°51'510.4
2018-Apr-09 14:30S 36°49' E 174°50'  

Dump ship's entire track history